Time;durP1;ratioP1;P1;durP2;ratioP2;P2;SDS_P1;SDS_P2;PMS_P1;PMS_P2;Temp;Humidity;BMP_temperature;BMP_pressure;BME280_temperature;BME280_humidity;BME280_pressure;Samples;Min_cycle;Max_cycle;Signal;HPM_P1;HPM_P2
2021/05/24 00:00:27;;;;;;;7.70;4.77;;;10.10;99.90;;;;;;5067476;28;20823;-58
2021/05/24 00:02:55;;;;;;;7.50;4.87;;;10.00;99.90;;;;;;5067086;28;20313;-56
2021/05/24 00:05:26;;;;;;;8.13;4.73;;;10.00;99.90;;;;;;5064626;28;20739;-56
2021/05/24 00:07:54;;;;;;;7.07;4.67;;;10.00;99.90;;;;;;5046789;28;20264;-56
2021/05/24 00:10:25;;;;;;;5.30;4.33;;;10.00;99.90;;;;;;5048527;28;20241;-56
2021/05/24 00:13:00;;;;;;;7.50;4.97;;;10.00;99.90;;;;;;5064417;28;20240;-54
2021/05/24 00:15:33;;;;;;;6.67;5.10;;;10.00;99.90;;;;;;5065947;28;20235;-57
2021/05/24 00:18:01;;;;;;;5.27;4.80;;;10.00;99.90;;;;;;5067287;28;20632;-57
2021/05/24 00:20:33;;;;;;;5.60;4.63;;;10.00;99.90;;;;;;5065215;28;20240;-57
2021/05/24 00:23:02;;;;;;;5.13;4.60;;;10.00;99.90;;;;;;5046115;28;20230;-58
2021/05/24 00:25:30;;;;;;;8.00;4.80;;;10.00;99.90;;;;;;5049506;28;20278;-54
2021/05/24 00:28:00;;;;;;;6.80;5.23;;;10.00;99.90;;;;;;5067390;28;20243;-58
2021/05/24 00:30:33;;;;;;;6.60;4.50;;;10.00;99.90;;;;;;5065032;28;20547;-57
2021/05/24 00:33:03;;;;;;;7.10;5.00;;;10.00;99.90;;;;;;5049559;28;20294;-58
2021/05/24 00:35:32;;;;;;;5.20;4.20;;;10.00;99.90;;;;;;5044398;28;20237;-57
2021/05/24 00:38:01;;;;;;;4.40;4.00;;;10.00;99.90;;;;;;5047107;28;20242;-56
2021/05/24 00:40:29;;;;;;;6.03;4.73;;;10.00;99.90;;;;;;5046508;28;20244;-58
2021/05/24 00:42:57;;;;;;;6.43;4.37;;;10.00;99.90;;;;;;5043962;28;20256;-56
2021/05/24 00:45:26;;;;;;;6.27;4.17;;;10.00;99.90;;;;;;5049405;28;20267;-56
2021/05/24 00:47:55;;;;;;;8.03;4.67;;;10.00;99.90;;;;;;5050276;28;20319;-57
2021/05/24 00:50:23;;;;;;;7.30;4.67;;;10.00;99.90;;;;;;5052312;28;20242;-57
2021/05/24 00:52:52;;;;;;;5.47;4.20;;;10.00;99.90;;;;;;5061301;28;20227;-58
2021/05/24 00:55:20;;;;;;;5.03;4.30;;;10.00;99.90;;;;;;5070832;28;20773;-55
2021/05/24 00:57:48;;;;;;;7.63;4.80;;;10.00;99.90;;;;;;5052839;28;20576;-58
2021/05/24 01:00:29;;;;;;;5.77;4.43;;;10.00;99.90;;;;;;5054441;28;20245;-54
2021/05/24 01:02:59;;;;;;;5.77;4.33;;;9.90;99.90;;;;;;5052008;28;20646;-57
2021/05/24 01:05:27;;;;;;;5.60;4.10;;;10.00;99.90;;;;;;5044884;28;20318;-55
2021/05/24 01:07:56;;;;;;;6.07;4.30;;;10.00;99.90;;;;;;5051160;28;20232;-56
2021/05/24 01:10:25;;;;;;;5.53;4.07;;;10.00;99.90;;;;;;5035474;28;20239;-57
2021/05/24 01:12:54;;;;;;;5.33;4.27;;;10.00;99.90;;;;;;5052972;28;20238;-56
2021/05/24 01:15:22;;;;;;;4.80;3.87;;;9.90;99.90;;;;;;5053738;28;20237;-58
2021/05/24 01:17:54;;;;;;;8.27;4.17;;;10.00;99.90;;;;;;5057683;28;20237;-57
2021/05/24 01:20:26;;;;;;;5.93;3.60;;;10.00;99.90;;;;;;5052317;28;20241;-56
2021/05/24 01:23:06;;;;;;;8.80;4.20;;;9.90;99.90;;;;;;5051926;28;20604;-58
2021/05/24 01:25:40;;;;;;;7.03;4.07;;;9.90;99.90;;;;;;5056076;28;20243;-54
2021/05/24 01:28:11;;;;;;;6.03;4.00;;;9.90;99.90;;;;;;5073705;28;20586;-53
2021/05/24 01:30:41;;;;;;;9.33;4.33;;;9.90;99.90;;;;;;5061324;28;20236;-53
2021/05/24 01:33:09;;;;;;;5.67;3.80;;;9.90;99.90;;;;;;5052950;28;20700;-53
2021/05/24 01:35:40;;;;;;;6.57;3.83;;;9.90;99.90;;;;;;5052334;28;20234;-54
2021/05/24 01:38:11;;;;;;;5.40;3.93;;;9.90;99.90;;;;;;5053334;28;20228;-58
2021/05/24 01:40:43;;;;;;;5.33;3.70;;;9.90;99.90;;;;;;5055330;28;20235;-55
2021/05/24 01:43:11;;;;;;;8.17;3.80;;;10.00;99.90;;;;;;5052158;28;20241;-56
2021/05/24 01:45:40;;;;;;;5.43;3.70;;;10.00;99.90;;;;;;5050879;28;20517;-54
2021/05/24 01:48:10;;;;;;;4.70;3.77;;;10.00;99.90;;;;;;5053339;28;20252;-58
2021/05/24 01:50:39;;;;;;;6.87;3.63;;;10.00;99.90;;;;;;5052600;28;20246;-57
2021/05/24 01:53:07;;;;;;;4.90;3.53;;;10.00;99.90;;;;;;5051046;28;20290;-57
2021/05/24 01:55:36;;;;;;;4.17;3.27;;;10.00;99.90;;;;;;5056437;28;20287;-54
2021/05/24 01:58:05;;;;;;;5.90;3.60;;;10.00;99.90;;;;;;5053595;28;20315;-55
2021/05/24 02:00:34;;;;;;;8.20;3.90;;;10.00;99.90;;;;;;5053066;28;20235;-58
2021/05/24 02:03:03;;;;;;;4.60;3.70;;;10.00;99.90;;;;;;5069651;28;20666;-58
2021/05/24 02:05:31;;;;;;;5.57;3.63;;;10.00;99.90;;;;;;5065835;28;20647;-57
2021/05/24 02:07:59;;;;;;;7.20;3.30;;;10.00;99.90;;;;;;5050283;28;20594;-56
2021/05/24 02:10:31;;;;;;;5.10;3.50;;;9.90;99.90;;;;;;5049590;28;20285;-57
2021/05/24 02:13:02;;;;;;;4.33;3.40;;;10.00;99.90;;;;;;5048395;28;20745;-56
2021/05/24 02:15:32;;;;;;;3.70;3.30;;;9.90;99.90;;;;;;5067332;28;20536;-56
2021/05/24 02:18:00;;;;;;;6.07;3.90;;;10.00;99.90;;;;;;5070020;28;20302;-57
2021/05/24 02:20:28;;;;;;;3.93;3.40;;;9.90;99.90;;;;;;5066397;28;20235;-55
2021/05/24 02:22:58;;;;;;;6.10;3.30;;;9.90;99.90;;;;;;5049164;28;20241;-54
2021/05/24 02:25:27;;;;;;;4.50;3.20;;;10.00;99.90;;;;;;5048377;28;20712;-56
2021/05/24 02:27:56;;;;;;;6.50;3.07;;;10.00;99.90;;;;;;5049713;28;20236;-53
2021/05/24 02:30:27;;;;;;;5.23;3.37;;;10.00;99.90;;;;;;5049390;28;20320;-56
2021/05/24 02:32:56;;;;;;;4.90;3.10;;;10.00;99.90;;;;;;5048942;28;20635;-57
2021/05/24 02:35:28;;;;;;;5.03;3.07;;;10.00;99.90;;;;;;5032400;28;20236;-52
2021/05/24 02:37:57;;;;;;;5.17;3.10;;;10.00;99.90;;;;;;5046001;28;20237;-55
2021/05/24 02:40:27;;;;;;;4.83;3.37;;;10.00;99.90;;;;;;5043649;28;20619;-53
2021/05/24 02:42:57;;;;;;;5.30;2.90;;;10.00;99.90;;;;;;5046184;28;20240;-54
2021/05/24 02:45:26;;;;;;;3.90;3.37;;;10.00;99.90;;;;;;5049382;28;20311;-54
2021/05/24 02:47:54;;;;;;;11.37;3.13;;;10.00;99.90;;;;;;5049190;28;20309;-53
2021/05/24 02:50:24;;;;;;;5.17;2.80;;;10.00;99.90;;;;;;5051014;28;20329;-57
2021/05/24 02:52:53;;;;;;;4.37;2.70;;;10.00;99.90;;;;;;5068356;28;20730;-56
2021/05/24 02:55:23;;;;;;;3.63;2.70;;;10.00;99.90;;;;;;5063463;28;20251;-55
2021/05/24 02:57:52;;;;;;;4.37;3.13;;;10.10;99.90;;;;;;5048869;28;20236;-57
2021/05/24 03:00:27;;;;;;;6.57;2.70;;;10.10;99.90;;;;;;5048418;28;20340;-54
2021/05/24 03:02:56;;;;;;;4.43;2.50;;;10.10;99.90;;;;;;5048966;28;20240;-55
2021/05/24 03:05:24;;;;;;;4.00;2.47;;;10.10;99.90;;;;;;5050514;28;20236;-57
2021/05/24 03:07:53;;;;;;;7.63;3.27;;;10.10;99.90;;;;;;5069485;28;20249;-57
2021/05/24 03:10:24;;;;;;;3.87;2.90;;;10.10;99.90;;;;;;5066292;28;20241;-56
2021/05/24 03:12:54;;;;;;;5.20;2.67;;;10.10;99.90;;;;;;5048209;28;20768;-53
2021/05/24 03:15:22;;;;;;;4.53;2.70;;;10.10;99.90;;;;;;5047896;28;20232;-55
2021/05/24 03:17:52;;;;;;;4.27;2.33;;;10.10;99.90;;;;;;5048359;28;20319;-56
2021/05/24 03:20:20;;;;;;;3.30;2.60;;;10.10;99.90;;;;;;5048105;28;20228;-54
2021/05/24 03:22:48;;;;;;;7.07;2.53;;;10.10;99.90;;;;;;5048014;28;20230;-56
2021/05/24 03:25:19;;;;;;;5.37;2.70;;;10.10;99.90;;;;;;5047910;28;20248;-53
2021/05/24 03:27:48;;;;;;;4.10;2.40;;;10.10;99.90;;;;;;5048059;28;20237;-56
2021/05/24 03:30:18;;;;;;;4.40;2.77;;;10.20;99.90;;;;;;5047943;28;20241;-54
2021/05/24 03:32:46;;;;;;;5.23;2.43;;;10.20;99.90;;;;;;5047679;28;20323;-55
2021/05/24 03:35:15;;;;;;;5.47;2.40;;;10.20;99.90;;;;;;5049005;28;20577;-57
2021/05/24 03:37:43;;;;;;;4.03;2.60;;;10.30;99.90;;;;;;5056726;28;20261;-57
2021/05/24 03:40:13;;;;;;;4.87;2.40;;;10.30;99.90;;;;;;5044411;28;20247;-54
2021/05/24 03:42:41;;;;;;;3.63;2.33;;;10.20;99.90;;;;;;5047134;28;20263;-54
2021/05/24 03:45:14;;;;;;;5.20;2.37;;;10.30;99.90;;;;;;5047880;28;20301;-55
2021/05/24 03:47:42;;;;;;;3.77;2.20;;;10.30;99.90;;;;;;5052211;28;20229;-56
2021/05/24 03:50:15;;;;;;;4.20;2.17;;;10.20;99.90;;;;;;5044185;28;20240;-54
2021/05/24 03:52:43;;;;;;;2.83;2.57;;;10.20;99.90;;;;;;5043202;28;20229;-54
2021/05/24 03:55:14;;;;;;;2.43;2.10;;;10.30;99.90;;;;;;5044294;28;20240;-54
2021/05/24 03:57:41;;;;;;;3.83;2.30;;;10.30;99.90;;;;;;5043711;28;20229;-55
2021/05/24 04:00:11;;;;;;;3.03;2.60;;;10.30;99.90;;;;;;5045117;28;20263;-57
2021/05/24 04:02:41;;;;;;;4.37;2.10;;;10.30;99.90;;;;;;5043706;28;20711;-52
2021/05/24 04:05:16;;;;;;;3.33;2.20;;;10.30;99.90;;;;;;5042509;28;20224;-55
2021/05/24 04:07:49;;;;;;;2.93;2.00;;;10.30;99.90;;;;;;5041547;28;20579;-53
2021/05/24 04:10:19;;;;;;;3.20;2.20;;;10.30;99.90;;;;;;5044406;28;20236;-54
2021/05/24 04:12:47;;;;;;;5.67;2.20;;;10.30;99.90;;;;;;5043074;28;20319;-54
2021/05/24 04:15:17;;;;;;;4.27;2.10;;;10.30;99.90;;;;;;5043372;28;20230;-55
2021/05/24 04:17:45;;;;;;;4.07;2.03;;;10.40;99.90;;;;;;5043128;28;20236;-56
2021/05/24 04:20:15;;;;;;;3.80;1.90;;;10.40;99.90;;;;;;5043642;28;20233;-56
2021/05/24 04:22:45;;;;;;;4.87;2.10;;;10.50;99.90;;;;;;5042703;28;20305;-55
2021/05/24 04:25:13;;;;;;;3.17;2.00;;;10.50;99.90;;;;;;5042585;28;20228;-53
2021/05/24 04:27:41;;;;;;;3.13;1.77;;;10.50;99.90;;;;;;5044105;28;20317;-57
2021/05/24 04:30:13;;;;;;;4.90;2.03;;;10.50;99.90;;;;;;5045497;28;20251;-52
2021/05/24 04:32:42;;;;;;;4.67;2.53;;;10.50;99.90;;;;;;5055570;28;20725;-56
2021/05/24 04:35:24;;;;;;;4.30;2.03;;;10.50;99.90;;;;;;2146022;28;10002472;-56
2021/05/24 04:37:53;;;;;;;4.10;2.10;;;10.50;99.90;;;;;;4346335;28;10001282;-57
2021/05/24 04:40:21;;;;;;;4.00;1.90;;;10.60;99.90;;;;;;5049080;28;20307;-56
2021/05/24 04:42:49;;;;;;;4.03;1.83;;;10.60;99.90;;;;;;5051373;28;20236;-56
2021/05/24 04:45:18;;;;;;;2.93;1.90;;;10.60;99.90;;;;;;5048256;28;20328;-54
2021/05/24 04:47:46;;;;;;;4.43;2.00;;;10.70;99.90;;;;;;5067192;28;20252;-53
2021/05/24 04:50:14;;;;;;;4.40;2.10;;;10.70;99.90;;;;;;5058777;28;20700;-54
2021/05/24 04:52:42;;;;;;;4.00;1.93;;;10.80;99.90;;;;;;5046699;28;20240;-57
2021/05/24 04:55:12;;;;;;;2.23;1.43;;;10.80;99.90;;;;;;5046150;28;20256;-55
2021/05/24 04:57:41;;;;;;;3.83;2.00;;;10.80;99.90;;;;;;5047064;28;20257;-56
2021/05/24 05:00:13;;;;;;;2.40;1.70;;;10.90;99.90;;;;;;5047405;28;20228;-54
2021/05/24 05:02:41;;;;;;;4.50;1.97;;;10.90;99.90;;;;;;5046165;28;20692;-54
2021/05/24 05:05:13;;;;;;;4.07;1.80;;;11.00;99.90;;;;;;5046990;28;20237;-55
2021/05/24 05:07:41;;;;;;;2.47;1.80;;;11.00;99.90;;;;;;5066949;28;20297;-56
2021/05/24 05:10:11;;;;;;;3.00;1.70;;;11.10;99.90;;;;;;5066089;28;20317;-57
2021/05/24 05:12:39;;;;;;;2.23;1.67;;;11.10;99.90;;;;;;5064870;28;20233;-57
2021/05/24 05:15:08;;;;;;;6.53;2.00;;;11.20;99.90;;;;;;5064499;28;20255;-57
2021/05/24 05:17:36;;;;;;;4.63;1.60;;;11.30;99.90;;;;;;5065417;28;20247;-53
2021/05/24 05:20:06;;;;;;;3.40;1.80;;;11.40;99.90;;;;;;5058869;28;20232;-56
2021/05/24 05:22:36;;;;;;;6.60;2.03;;;11.40;99.90;;;;;;5051590;28;20236;-54
2021/05/24 05:25:06;;;;;;;3.57;1.57;;;11.40;99.90;;;;;;5045360;28;20244;-55
2021/05/24 05:27:35;;;;;;;2.90;1.70;;;11.40;99.90;;;;;;5025759;28;20285;-57
2021/05/24 05:30:05;;;;;;;2.90;1.80;;;11.50;99.90;;;;;;5026191;28;20330;-52
2021/05/24 05:32:33;;;;;;;3.03;1.70;;;11.60;99.90;;;;;;5039157;28;20301;-57
2021/05/24 05:35:02;;;;;;;2.00;1.60;;;11.60;99.90;;;;;;5045249;28;20712;-53
2021/05/24 05:37:30;;;;;;;1.83;1.30;;;11.70;99.90;;;;;;5063684;28;20237;-56
2021/05/24 05:39:59;;;;;;;3.00;1.80;;;11.80;99.90;;;;;;5047885;28;20683;-56
2021/05/24 05:42:27;;;;;;;2.47;1.67;;;11.90;99.90;;;;;;5067125;28;20248;-55
2021/05/24 05:44:56;;;;;;;4.17;1.40;;;12.00;99.90;;;;;;5068368;28;20780;-56
2021/05/24 05:47:25;;;;;;;2.60;1.70;;;12.10;99.90;;;;;;5051637;28;20235;-55
2021/05/24 05:49:52;;;;;;;3.27;1.60;;;12.20;99.90;;;;;;5049214;28;20229;-54
2021/05/24 05:52:20;;;;;;;3.10;1.50;;;12.30;99.90;;;;;;5065804;28;20245;-55
2021/05/24 05:54:49;;;;;;;2.83;1.60;;;12.40;99.90;;;;;;5068333;28;20640;-53
2021/05/24 05:57:17;;;;;;;3.27;1.63;;;12.50;99.90;;;;;;5068372;28;20241;-56
2021/05/24 05:59:45;;;;;;;2.40;1.40;;;12.50;99.90;;;;;;5068751;28;20606;-57
2021/05/24 06:02:14;;;;;;;2.87;1.43;;;12.60;99.90;;;;;;5041738;28;20723;-56
2021/05/24 06:04:42;;;;;;;3.47;1.60;;;12.60;99.90;;;;;;5028804;28;20239;-54
2021/05/24 06:07:10;;;;;;;4.30;1.80;;;12.70;99.90;;;;;;5045845;28;20240;-55
2021/05/24 06:09:38;;;;;;;4.47;1.73;;;12.80;99.90;;;;;;5049445;28;20258;-55
2021/05/24 06:12:08;;;;;;;2.50;1.67;;;12.80;99.90;;;;;;5065093;28;20640;-54
2021/05/24 06:14:37;;;;;;;1.77;1.30;;;12.80;99.90;;;;;;5068294;28;20258;-54
2021/05/24 06:17:05;;;;;;;2.33;1.50;;;12.90;99.90;;;;;;5049375;28;20293;-57
2021/05/24 06:19:34;;;;;;;2.80;1.70;;;13.10;99.90;;;;;;5049171;28;20237;-55
2021/05/24 06:22:02;;;;;;;2.87;1.43;;;13.50;99.90;;;;;;5048719;28;20235;-55
2021/05/24 06:24:30;;;;;;;2.70;1.50;;;14.10;99.90;;;;;;5045813;28;20250;-58
2021/05/24 06:26:57;;;;;;;3.00;1.30;;;14.40;99.90;;;;;;5062815;28;20242;-56
2021/05/24 06:29:26;;;;;;;3.10;1.37;;;14.60;99.90;;;;;;5061881;28;20243;-53
2021/05/24 06:31:56;;;;;;;2.37;1.23;;;14.90;99.90;;;;;;5044786;28;20240;-52
2021/05/24 06:34:24;;;;;;;3.37;1.30;;;15.20;99.90;;;;;;5046517;28;20238;-54
2021/05/24 06:36:53;;;;;;;2.50;1.30;;;15.50;99.90;;;;;;5054398;28;20224;-55
2021/05/24 06:39:21;;;;;;;1.90;1.27;;;15.50;99.90;;;;;;5048227;28;20243;-54
2021/05/24 06:41:49;;;;;;;3.27;1.40;;;15.40;99.90;;;;;;5061176;28;20310;-55
2021/05/24 06:44:18;;;;;;;2.67;1.27;;;15.50;99.90;;;;;;5067295;28;20645;-56
2021/05/24 06:46:47;;;;;;;3.67;1.27;;;15.40;99.90;;;;;;5061629;28;20240;-56
2021/05/24 06:49:15;;;;;;;1.70;1.10;;;15.50;99.90;;;;;;5049438;28;20235;-57
2021/05/24 06:51:44;;;;;;;2.40;1.20;;;15.50;99.90;;;;;;5061868;28;20277;-57
2021/05/24 06:54:12;;;;;;;3.53;1.20;;;15.60;99.90;;;;;;5068189;28;20709;-57
2021/05/24 06:56:40;;;;;;;1.87;1.20;;;15.60;99.90;;;;;;5054652;28;20247;-57
2021/05/24 06:59:08;;;;;;;3.07;1.00;;;15.90;99.90;;;;;;5049098;28;20239;-55
2021/05/24 07:01:38;;;;;;;2.47;1.10;;;16.10;99.90;;;;;;5060613;28;20766;-57
2021/05/24 07:04:06;;;;;;;2.67;1.40;;;16.20;99.90;;;;;;5068523;28;20231;-57
2021/05/24 07:06:34;;;;;;;2.53;1.20;;;16.50;99.90;;;;;;5067776;28;20239;-56
2021/05/24 07:09:07;;;;;;;2.87;1.10;;;16.80;99.90;;;;;;5068827;28;20235;-56
2021/05/24 07:11:36;;;;;;;3.20;1.30;;;17.10;99.90;;;;;;5056390;28;20615;-56
2021/05/24 07:14:04;;;;;;;1.87;1.30;;;17.50;99.90;;;;;;5047908;28;20262;-57
2021/05/24 07:16:32;;;;;;;2.43;1.17;;;17.30;99.90;;;;;;5055708;28;20228;-55
2021/05/24 07:19:00;;;;;;;2.97;1.07;;;17.30;99.90;;;;;;5050524;28;20318;-56
2021/05/24 07:21:28;;;;;;;2.23;1.17;;;17.40;99.90;;;;;;5046443;28;20270;-55
2021/05/24 07:23:56;;;;;;;2.00;1.30;;;17.60;99.90;;;;;;5048243;28;20240;-56
2021/05/24 07:26:26;;;;;;;1.70;1.00;;;17.70;99.90;;;;;;5058663;28;20319;-55
2021/05/24 07:28:54;;;;;;;3.90;1.10;;;17.70;99.90;;;;;;5050078;28;20246;-57
2021/05/24 07:31:22;;;;;;;3.13;1.30;;;18.00;99.90;;;;;;5044576;28;20289;-55
2021/05/24 07:33:50;;;;;;;2.13;0.93;;;18.20;99.90;;;;;;5045241;28;20271;-56
2021/05/24 07:36:18;;;;;;;1.53;0.83;;;18.40;99.90;;;;;;5042294;28;20464;-55
2021/05/24 07:38:46;;;;;;;1.33;0.80;;;18.30;99.90;;;;;;5048095;28;20244;-53
2021/05/24 07:41:15;;;;;;;1.60;0.97;;;18.20;99.90;;;;;;5047781;28;20319;-56
2021/05/24 07:43:43;;;;;;;2.17;0.83;;;18.20;99.90;;;;;;5047300;28;20240;-55
2021/05/24 07:46:12;;;;;;;0.97;0.60;;;18.20;99.90;;;;;;5048857;28;20229;-54
2021/05/24 07:48:40;;;;;;;3.83;0.87;;;18.30;99.90;;;;;;5044495;28;20652;-57
2021/05/24 07:51:09;;;;;;;2.23;1.00;;;18.50;99.90;;;;;;5056229;28;20327;-57
2021/05/24 07:53:37;;;;;;;1.33;0.90;;;18.50;99.90;;;;;;5067316;28;20236;-56
2021/05/24 07:56:05;;;;;;;1.30;0.80;;;18.30;99.90;;;;;;5055575;28;20233;-55
2021/05/24 07:58:33;;;;;;;2.53;0.80;;;18.30;99.90;;;;;;5047614;28;20241;-57
2021/05/24 08:01:01;;;;;;;2.67;1.00;;;18.10;99.90;;;;;;5047068;28;20240;-55
2021/05/24 08:03:30;;;;;;;1.37;0.77;;;18.10;99.90;;;;;;5046731;28;20242;-56
2021/05/24 08:05:58;;;;;;;3.27;1.30;;;18.10;99.90;;;;;;5043744;28;20291;-56
2021/05/24 08:08:26;;;;;;;4.20;1.17;;;18.10;99.90;;;;;;5044876;28;20244;-56
2021/05/24 08:10:54;;;;;;;1.93;0.90;;;18.30;99.90;;;;;;5044327;28;20628;-56
2021/05/24 08:13:28;;;;;;;1.83;0.80;;;18.60;99.90;;;;;;5046851;28;20229;-54
2021/05/24 08:15:57;;;;;;;3.07;1.03;;;18.50;99.90;;;;;;5046220;28;20332;-54
2021/05/24 08:18:25;;;;;;;1.80;1.00;;;18.80;99.90;;;;;;5060065;28;20320;-54
2021/05/24 08:20:54;;;;;;;1.07;0.70;;;19.00;99.90;;;;;;5040088;28;20233;-55
2021/05/24 08:23:22;;;;;;;3.07;0.90;;;19.40;99.90;;;;;;5042335;28;20500;-55
2021/05/24 08:25:50;;;;;;;1.83;0.73;;;19.50;99.90;;;;;;5044495;28;20242;-56
2021/05/24 08:28:18;;;;;;;2.57;1.00;;;19.40;99.90;;;;;;5040028;28;20236;-56
2021/05/24 08:30:46;;;;;;;1.87;0.70;;;19.60;99.90;;;;;;5045966;28;20264;-55
2021/05/24 08:33:14;;;;;;;2.07;0.90;;;20.00;99.90;;;;;;5043001;28;20235;-56
2021/05/24 08:35:41;;;;;;;2.20;1.07;;;20.60;99.90;;;;;;5040986;28;20233;-54
2021/05/24 08:38:10;;;;;;;2.73;0.90;;;20.80;99.90;;;;;;5044377;28;20774;-55
2021/05/24 08:40:38;;;;;;;2.83;1.10;;;20.70;99.90;;;;;;5041179;28;20245;-56
2021/05/24 08:43:07;;;;;;;2.90;0.90;;;20.60;99.90;;;;;;5041184;28;20802;-54
2021/05/24 08:45:39;;;;;;;2.07;0.90;;;20.70;99.90;;;;;;5048480;28;20711;-56
2021/05/24 08:48:09;;;;;;;3.33;1.00;;;21.10;99.90;;;;;;5046063;28;20231;-56
2021/05/24 08:50:38;;;;;;;2.83;0.87;;;21.00;99.90;;;;;;5045895;28;20238;-56
2021/05/24 08:53:10;;;;;;;1.47;0.80;;;20.70;99.90;;;;;;5045692;28;20616;-57
2021/05/24 08:55:39;;;;;;;1.53;0.77;;;20.60;99.90;;;;;;5050399;28;20245;-55
2021/05/24 08:58:09;;;;;;;3.43;0.80;;;20.80;99.90;;;;;;5066703;28;20643;-55
2021/05/24 09:00:37;;;;;;;1.37;0.90;;;21.10;99.90;;;;;;5063616;28;20317;-57
2021/05/24 09:03:15;;;;;;;1.83;0.90;;;21.10;99.90;;;;;;5042895;28;20253;-54
2021/05/24 09:05:45;;;;;;;2.83;1.20;;;21.00;99.90;;;;;;5042320;28;20603;-55
2021/05/24 09:08:14;;;;;;;1.90;0.80;;;20.70;99.90;;;;;;5047391;28;20331;-57
2021/05/24 09:10:44;;;;;;;3.07;1.00;;;20.90;99.90;;;;;;5049222;28;20242;-54
2021/05/24 09:13:16;;;;;;;3.53;0.90;;;21.10;99.90;;;;;;5065449;28;20655;-54
2021/05/24 09:15:47;;;;;;;2.13;0.80;;;21.20;99.90;;;;;;5034451;28;21309;-56
2021/05/24 09:18:18;;;;;;;1.83;1.17;;;21.20;99.90;;;;;;5049234;28;20633;-57
2021/05/24 09:20:50;;;;;;;2.13;0.80;;;21.40;99.90;;;;;;5049101;28;20231;-55
2021/05/24 09:23:23;;;;;;;2.27;0.83;;;21.40;99.90;;;;;;5043897;28;20264;-57
2021/05/24 09:26:03;;;;;;;1.47;0.80;;;21.70;99.90;;;;;;5044153;28;20235;-56
2021/05/24 09:28:41;;;;;;;2.67;0.90;;;21.70;99.90;;;;;;5036101;28;20795;-57
2021/05/24 09:31:13;;;;;;;3.53;1.00;;;21.60;99.90;;;;;;5059517;28;20469;-57
2021/05/24 09:33:44;;;;;;;3.70;1.00;;;21.50;99.90;;;;;;5070001;28;20238;-57
2021/05/24 09:36:13;;;;;;;2.17;0.93;;;21.60;99.90;;;;;;5071506;28;20246;-56
2021/05/24 09:38:44;;;;;;;1.30;0.77;;;21.60;99.90;;;;;;5063198;28;20710;-57
2021/05/24 09:41:15;;;;;;;1.47;0.67;;;21.70;99.90;;;;;;5060581;28;20238;-57
2021/05/24 09:43:46;;;;;;;3.63;0.80;;;21.60;99.90;;;;;;5077143;28;20229;-56
2021/05/24 09:46:20;;;;;;;2.83;0.80;;;21.70;99.90;;;;;;5055336;28;20227;-57
2021/05/24 09:48:50;;;;;;;1.23;0.60;;;21.90;99.90;;;;;;5047420;28;20436;-58
2021/05/24 09:51:21;;;;;;;3.93;0.70;;;22.20;99.90;;;;;;5048753;28;20296;-57
2021/05/24 09:54:00;;;;;;;1.37;0.63;;;22.10;99.90;;;;;;5047247;28;20238;-56
2021/05/24 09:56:30;;;;;;;2.20;0.87;;;22.20;99.90;;;;;;5049147;28;20230;-57
2021/05/24 09:59:07;;;;;;;4.63;1.02;;;22.70;99.90;;;;;;5049550;28;20795;-58
2021/05/24 10:01:39;;;;;;;4.47;0.80;;;23.00;99.90;;;;;;5049266;28;20231;-57
2021/05/24 10:04:11;;;;;;;1.20;0.67;;;23.10;99.90;;;;;;5064299;28;20602;-56
2021/05/24 10:06:39;;;;;;;3.33;0.90;;;23.40;99.90;;;;;;5054789;28;20304;-58
2021/05/24 10:09:10;;;;;;;2.47;0.80;;;23.50;99.90;;;;;;5069748;28;20231;-58
2021/05/24 10:11:42;;;;;;;1.77;0.60;;;23.50;99.90;;;;;;5068109;28;20238;-58
2021/05/24 10:14:12;;;;;;;2.37;0.80;;;23.50;99.90;;;;;;5068356;28;20234;-57
2021/05/24 10:16:43;;;;;;;4.23;0.90;;;22.90;99.90;;;;;;5069677;28;20258;-57
2021/05/24 10:19:13;;;;;;;1.60;0.73;;;22.20;99.90;;;;;;5059282;28;20239;-57
2021/05/24 10:21:42;;;;;;;2.67;0.93;;;21.70;99.90;;;;;;5052472;28;20990;-59
2021/05/24 10:24:12;;;;;;;1.70;0.90;;;21.40;99.90;;;;;;5045323;28;20239;-56
2021/05/24 10:26:44;;;;;;;1.77;0.80;;;21.10;99.90;;;;;;5047632;28;20259;-56
2021/05/24 10:29:14;;;;;;;1.67;0.70;;;21.00;99.90;;;;;;5049797;28;20665;-56
2021/05/24 10:31:47;;;;;;;2.37;0.90;;;21.20;99.90;;;;;;5048683;28;20326;-56
2021/05/24 10:34:18;;;;;;;1.90;0.70;;;21.00;99.90;;;;;;5049183;28;20289;-55
2021/05/24 10:37:04;;;;;;;2.60;0.93;;;21.00;99.90;;;;;;5050061;28;20306;-55
2021/05/24 10:39:47;;;;;;;2.23;0.90;;;21.10;99.90;;;;;;5049404;28;20238;-54
2021/05/24 10:42:15;;;;;;;2.33;0.87;;;20.90;99.90;;;;;;5064693;28;20234;-56
2021/05/24 10:44:47;;;;;;;2.07;0.93;;;20.80;99.90;;;;;;5065818;28;20242;-57
2021/05/24 10:47:21;;;;;;;2.20;0.90;;;20.60;99.90;;;;;;5067711;28;20296;-54
2021/05/24 10:50:04;;;;;;;1.37;0.67;;;20.70;99.90;;;;;;5069607;28;20312;-57
2021/05/24 10:52:35;;;;;;;1.17;0.67;;;21.30;99.90;;;;;;5056710;28;20231;-57
2021/05/24 10:55:35;;;;;;;2.17;1.00;;;21.40;99.90;;;;;;5049198;28;20555;-61
2021/05/24 10:58:14;;;;;;;133.40;13.07;;;21.10;99.90;;;;;;5041671;28;20225;-63
2021/05/24 11:00:59;;;;;;;4.27;0.80;;;20.80;99.90;;;;;;5048053;28;20247;-61
2021/05/24 11:03:28;;;;;;;3.30;0.80;;;20.70;99.90;;;;;;5048136;28;20243;-59
2021/05/24 11:06:11;;;;;;;2.80;0.70;;;21.50;99.90;;;;;;5046132;28;20626;-57
2021/05/24 11:08:43;;;;;;;3.73;0.80;;;22.00;99.90;;;;;;5049152;28;20319;-56
2021/05/24 11:11:25;;;;;;;1.52;0.73;;;22.10;99.90;;;;;;5047242;28;20494;-58
2021/05/24 11:14:01;;;;;;;1.67;0.70;;;21.80;99.90;;;;;;5046568;28;20275;-58
2021/05/24 11:16:33;;;;;;;1.73;0.60;;;21.30;99.80;;;;;;5072051;28;20288;-59
2021/05/24 11:19:06;;;;;;;1.40;0.70;;;21.00;99.90;;;;;;5037540;28;20708;-59
2021/05/24 11:21:35;;;;;;;2.10;0.50;;;20.90;99.90;;;;;;5044843;28;20662;-60
2021/05/24 11:24:34;;;;;;;1.20;0.80;;;20.70;99.90;;;;;;5044365;28;20238;-58
2021/05/24 11:27:09;;;;;;;2.50;0.70;;;20.50;99.90;;;;;;5049497;28;20258;-60
2021/05/24 11:29:39;;;;;;;2.23;0.67;;;20.30;99.90;;;;;;5048170;28;20243;-59
2021/05/24 11:32:24;;;;;;;2.37;0.80;;;20.60;99.90;;;;;;5063349;28;20227;-58
2021/05/24 11:34:53;;;;;;;2.23;0.87;;;20.80;99.90;;;;;;5048346;28;20250;-58
2021/05/24 11:37:41;;;;;;;2.73;0.80;;;20.60;99.90;;;;;;5064542;28;20594;-58
2021/05/24 11:40:17;;;;;;;0.80;0.70;;;20.60;99.90;;;;;;5045168;28;20236;-60
2021/05/24 11:42:50;;;;;;;3.57;1.00;;;21.10;99.90;;;;;;5064197;28;20589;-59
2021/05/24 11:45:21;;;;;;;1.73;0.60;;;21.80;99.90;;;;;;5047650;28;20632;-60
2021/05/24 11:47:57;;;;;;;2.20;0.70;;;22.60;99.90;;;;;;5047277;28;20232;-59
2021/05/24 11:50:28;;;;;;;1.37;0.60;;;22.90;98.60;;;;;;5044571;28;20227;-58
2021/05/24 11:52:57;;;;;;;4.37;0.60;;;22.80;96.60;;;;;;5032137;28;20305;-56
2021/05/24 11:55:25;;;;;;;1.33;0.60;;;23.00;97.10;;;;;;5044982;28;20587;-58
2021/05/24 11:57:55;;;;;;;0.90;0.60;;;22.60;95.60;;;;;;5045315;28;20307;-57
2021/05/24 12:00:25;;;;;;;2.47;0.80;;;22.50;96.10;;;;;;5046772;28;20242;-59
2021/05/24 12:03:02;;;;;;;1.10;0.60;;;22.60;95.20;;;;;;5061540;28;20304;-59
2021/05/24 12:05:31;;;;;;;0.97;0.63;;;22.70;96.70;;;;;;5033171;28;20767;-58
2021/05/24 12:07:59;;;;;;;1.87;0.63;;;22.50;95.70;;;;;;5031198;28;20265;-55
2021/05/24 12:10:28;;;;;;;2.73;0.80;;;22.30;95.40;;;;;;5029455;28;20243;-58
2021/05/24 12:12:58;;;;;;;0.97;0.60;;;22.20;93.60;;;;;;5027535;28;20235;-58
2021/05/24 12:15:27;;;;;;;1.03;0.70;;;22.00;93.00;;;;;;5023847;28;20236;-59
2021/05/24 12:18:00;;;;;;;1.30;0.60;;;21.80;95.20;;;;;;5030370;28;20967;-59
2021/05/24 12:20:28;;;;;;;1.80;0.50;;;21.80;94.00;;;;;;5031809;28;21485;-57
2021/05/24 12:22:56;;;;;;;1.27;0.70;;;21.60;94.40;;;;;;5034507;28;20224;-58
2021/05/24 12:25:24;;;;;;;2.77;0.70;;;21.70;95.40;;;;;;5034138;28;20240;-59
2021/05/24 12:27:57;;;;;;;0.83;0.50;;;21.70;92.50;;;;;;5030087;28;20330;-59
2021/05/24 12:30:35;;;;;;;1.33;0.80;;;21.50;93.40;;;;;;5029172;28;20238;-57
2021/05/24 12:33:07;;;;;;;1.17;0.63;;;21.40;93.80;;;;;;5030301;28;20586;-58
2021/05/24 12:35:38;;;;;;;1.80;0.73;;;21.40;94.00;;;;;;5027051;28;20231;-59
2021/05/24 12:38:17;;;;;;;1.47;0.50;;;21.40;94.60;;;;;;5050123;28;20247;-59
2021/05/24 12:40:51;;;;;;;2.87;0.70;;;21.40;93.30;;;;;;5030759;28;20227;-59
2021/05/24 12:43:20;;;;;;;1.07;0.50;;;21.50;92.30;;;;;;5027667;28;20235;-57
2021/05/24 12:45:50;;;;;;;1.47;0.50;;;21.50;91.00;;;;;;5024121;28;20239;-54
2021/05/24 12:48:22;;;;;;;1.37;0.40;;;21.50;91.20;;;;;;5028989;28;20240;-58
2021/05/24 12:50:51;;;;;;;1.37;0.50;;;21.40;91.70;;;;;;5043365;28;20329;-58
2021/05/24 12:53:23;;;;;;;1.83;0.50;;;21.40;92.70;;;;;;5041756;28;20248;-56
2021/05/24 12:55:54;;;;;;;0.43;0.43;;;21.40;91.60;;;;;;5029942;28;20261;-59
2021/05/24 12:58:23;;;;;;;1.23;0.50;;;21.50;91.10;;;;;;5029143;28;20258;-57
2021/05/24 13:00:54;;;;;;;1.63;0.40;;;21.50;91.70;;;;;;5030622;28;20335;-59
2021/05/24 13:03:43;;;;;;;2.03;0.50;;;21.50;90.90;;;;;;5039248;28;20644;-59